sensor_id;sensor_type;location;lat;lon;timestamp;pressure;altitude;pressure_sealevel;temperature;humidity
71764;BME280;59602;52.142;5.408;2024-03-22T05:01:28;101889.69;;;10.78;100.00
71764;BME280;59602;52.142;5.408;2024-03-22T05:04:35;101890.75;;;10.74;100.00
71764;BME280;59602;52.142;5.408;2024-03-22T05:10:52;101891.25;;;10.79;100.00
71764;BME280;59602;52.142;5.408;2024-03-22T05:17:00;101875.38;;;10.82;100.00
71764;BME280;59602;52.142;5.408;2024-03-22T05:20:12;101882.81;;;10.85;100.00
71764;BME280;59602;52.142;5.408;2024-03-22T05:23:17;101879.31;;;10.84;100.00
71764;BME280;59602;52.142;5.408;2024-03-22T05:34:11;101866.44;;;10.81;100.00
71764;BME280;59602;52.142;5.408;2024-03-22T05:44:13;101859.50;;;10.84;100.00
71764;BME280;59602;52.142;5.408;2024-03-22T06:03:52;101837.84;;;10.71;100.00
71764;BME280;59602;52.142;5.408;2024-03-22T06:10:09;101836.34;;;10.74;100.00
71764;BME280;59602;52.142;5.408;2024-03-22T06:19:07;101832.97;;;10.80;100.00
71764;BME280;59602;52.142;5.408;2024-03-22T06:21:43;101832.56;;;10.78;100.00
71764;BME280;59602;52.142;5.408;2024-03-22T06:24:09;101836.06;;;10.79;100.00
71764;BME280;59602;52.142;5.408;2024-03-22T06:27:01;101830.63;;;10.79;100.00
71764;BME280;59602;52.142;5.408;2024-03-22T06:29:29;101821.69;;;10.78;100.00
71764;BME280;59602;52.142;5.408;2024-03-22T06:31:56;101813.59;;;10.82;100.00
71764;BME280;59602;52.142;5.408;2024-03-22T06:34:48;101822.25;;;10.88;100.00
71764;BME280;59602;52.142;5.408;2024-03-22T06:37:20;101828.06;;;10.86;100.00
71764;BME280;59602;52.142;5.408;2024-03-22T06:39:52;101831.63;;;10.90;100.00
71764;BME280;59602;52.142;5.408;2024-03-22T06:42:21;101823.13;;;10.92;100.00
71764;BME280;59602;52.142;5.408;2024-03-22T06:47:35;101821.84;;;10.86;100.00
71764;BME280;59602;52.142;5.408;2024-03-22T06:50:31;101817.31;;;10.93;100.00
71764;BME280;59602;52.142;5.408;2024-03-22T06:53:31;101822.97;;;11.04;100.00
71764;BME280;59602;52.142;5.408;2024-03-22T06:56:09;101830.00;;;11.05;100.00
71764;BME280;59602;52.142;5.408;2024-03-22T06:59:08;101828.13;;;11.09;100.00
71764;BME280;59602;52.142;5.408;2024-03-22T07:01:43;101824.41;;;11.17;100.00
71764;BME280;59602;52.142;5.408;2024-03-22T07:04:15;101820.59;;;11.22;100.00
71764;BME280;59602;52.142;5.408;2024-03-22T07:14:01;101831.50;;;11.22;100.00
71764;BME280;59602;52.142;5.408;2024-03-22T07:20:05;101828.84;;;11.26;100.00
71764;BME280;59602;52.142;5.408;2024-03-22T07:26:59;101833.66;;;11.32;100.00
71764;BME280;59602;52.142;5.408;2024-03-22T07:30:12;101828.22;;;11.32;100.00
71764;BME280;59602;52.142;5.408;2024-03-22T07:33:03;101833.66;;;11.32;100.00
71764;BME280;59602;52.142;5.408;2024-03-22T07:39:09;101832.44;;;11.30;100.00
71764;BME280;59602;52.142;5.408;2024-03-22T07:42:41;101833.13;;;11.27;100.00
71764;BME280;59602;52.142;5.408;2024-03-22T07:59:41;101831.28;;;11.31;100.00
71764;BME280;59602;52.142;5.408;2024-03-22T08:02:09;101828.91;;;11.29;100.00
71764;BME280;59602;52.142;5.408;2024-03-22T08:04:36;101828.91;;;11.29;100.00
71764;BME280;59602;52.142;5.408;2024-03-22T08:07:01;101827.78;;;11.30;100.00
71764;BME280;59602;52.142;5.408;2024-03-22T08:09:27;101832.44;;;11.30;100.00
71764;BME280;59602;52.142;5.408;2024-03-22T08:11:56;101821.81;;;11.25;100.00
71764;BME280;59602;52.142;5.408;2024-03-22T08:14:23;101824.91;;;11.23;100.00
71764;BME280;59602;52.142;5.408;2024-03-22T08:16:48;101827.25;;;11.25;100.00
71764;BME280;59602;52.142;5.408;2024-03-22T08:19:15;101818.66;;;11.22;100.00
71764;BME280;59602;52.142;5.408;2024-03-22T08:21:42;101822.59;;;11.25;100.00
71764;BME280;59602;52.142;5.408;2024-03-22T08:24:08;101826.13;;;11.26;100.00
71764;BME280;59602;52.142;5.408;2024-03-22T08:26:33;101815.16;;;11.22;100.00
71764;BME280;59602;52.142;5.408;2024-03-22T08:28:59;101814.44;;;11.25;100.00
71764;BME280;59602;52.142;5.408;2024-03-22T08:31:31;101827.25;;;11.25;100.00
71764;BME280;59602;52.142;5.408;2024-03-22T08:34:01;101824.53;;;11.25;100.00
71764;BME280;59602;52.142;5.408;2024-03-22T08:36:30;101817.44;;;11.20;100.00
71764;BME280;59602;52.142;5.408;2024-03-22T08:38:56;101814.25;;;11.14;100.00
71764;BME280;59602;52.142;5.408;2024-03-22T08:41:22;101815.03;;;11.15;100.00
71764;BME280;59602;52.142;5.408;2024-03-22T08:43:48;101814.31;;;11.18;100.00
71764;BME280;59602;52.142;5.408;2024-03-22T08:46:15;101807.72;;;11.19;100.00
71764;BME280;59602;52.142;5.408;2024-03-22T08:48:41;101815.09;;;11.18;100.00
71764;BME280;59602;52.142;5.408;2024-03-22T08:51:07;101816.59;;;11.16;100.00
71764;BME280;59602;52.142;5.408;2024-03-22T08:53:35;101815.38;;;11.13;100.00
71764;BME280;59602;52.142;5.408;2024-03-22T08:56:33;101803.56;;;11.06;100.00
71764;BME280;59602;52.142;5.408;2024-03-22T09:10:50;101809.66;;;10.99;100.00
71764;BME280;59602;52.142;5.408;2024-03-22T09:17:46;101812.00;;;11.00;100.00
71764;BME280;59602;52.142;5.408;2024-03-22T10:11:24;101790.41;;;11.08;100.00
71764;BME280;59602;52.142;5.408;2024-03-22T10:14:28;101789.59;;;11.07;100.00
71764;BME280;59602;52.142;5.408;2024-03-22T10:17:26;101783.44;;;11.10;100.00
71764;BME280;59602;52.142;5.408;2024-03-22T10:20:29;101796.41;;;11.17;100.00
71764;BME280;59602;52.142;5.408;2024-03-22T10:22:59;101782.06;;;11.20;100.00
71764;BME280;59602;52.142;5.408;2024-03-22T10:25:26;101781.50;;;11.30;100.00
71764;BME280;59602;52.142;5.408;2024-03-22T11:12:54;101771.03;;;11.32;100.00
71764;BME280;59602;52.142;5.408;2024-03-22T11:15:20;101767.94;;;11.34;100.00
71764;BME280;59602;52.142;5.408;2024-03-22T11:17:46;101764.19;;;11.42;100.00
71764;BME280;59602;52.142;5.408;2024-03-22T11:20:12;101763.47;;;11.45;100.00
71764;BME280;59602;52.142;5.408;2024-03-22T11:22:41;101767.81;;;11.50;100.00
71764;BME280;59602;52.142;5.408;2024-03-22T11:25:08;101760.06;;;11.52;100.00
71764;BME280;59602;52.142;5.408;2024-03-22T11:27:37;101755.84;;;11.54;100.00
71764;BME280;59602;52.142;5.408;2024-03-22T11:30:03;101753.59;;;11.60;100.00
71764;BME280;59602;52.142;5.408;2024-03-22T11:32:29;101749.53;;;11.73;100.00
71764;BME280;59602;52.142;5.408;2024-03-22T11:34:56;101755.06;;;11.77;100.00
71764;BME280;59602;52.142;5.408;2024-03-22T11:37:22;101744.25;;;11.84;100.00
71764;BME280;59602;52.142;5.408;2024-03-22T11:39:48;101746.63;;;11.86;100.00
71764;BME280;59602;52.142;5.408;2024-03-22T11:42:15;101742.25;;;11.81;100.00
71764;BME280;59602;52.142;5.408;2024-03-22T11:44:42;101735.59;;;11.78;100.00
71764;BME280;59602;52.142;5.408;2024-03-22T11:47:22;101728.63;;;11.81;100.00
71764;BME280;59602;52.142;5.408;2024-03-22T11:49:50;101729.88;;;11.83;100.00
71764;BME280;59602;52.142;5.408;2024-03-22T11:52:15;101735.03;;;11.89;100.00
71764;BME280;59602;52.142;5.408;2024-03-22T11:54:50;101729.63;;;11.92;100.00
71764;BME280;59602;52.142;5.408;2024-03-22T11:57:17;101731.84;;;11.87;100.00
71764;BME280;59602;52.142;5.408;2024-03-22T11:59:43;101721.19;;;11.78;100.00
71764;BME280;59602;52.142;5.408;2024-03-22T12:02:12;101724.25;;;11.73;100.00
71764;BME280;59602;52.142;5.408;2024-03-22T12:04:45;101724.56;;;11.68;100.00
71764;BME280;59602;52.142;5.408;2024-03-22T12:07:13;101732.31;;;11.66;100.00
71764;BME280;59602;52.142;5.408;2024-03-22T12:09:41;101722.22;;;11.70;100.00
71764;BME280;59602;52.142;5.408;2024-03-22T12:12:08;101723.38;;;11.69;100.00
71764;BME280;59602;52.142;5.408;2024-03-22T12:14:35;101718.25;;;11.63;100.00
71764;BME280;59602;52.142;5.408;2024-03-22T12:17:02;101729.00;;;11.56;100.00
71764;BME280;59602;52.142;5.408;2024-03-22T12:19:28;101728.13;;;11.49;100.00
71764;BME280;59602;52.142;5.408;2024-03-22T12:21:54;101723.09;;;11.51;100.00
71764;BME280;59602;52.142;5.408;2024-03-22T12:24:21;101725.16;;;11.57;100.00
71764;BME280;59602;52.142;5.408;2024-03-22T12:26:47;101718.84;;;11.53;100.00
71764;BME280;59602;52.142;5.408;2024-03-22T12:29:16;101720.44;;;11.54;100.00
71764;BME280;59602;52.142;5.408;2024-03-22T12:31:42;101721.94;;;11.52;100.00
71764;BME280;59602;52.142;5.408;2024-03-22T12:34:08;101714.88;;;11.47;100.00
71764;BME280;59602;52.142;5.408;2024-03-22T12:36:34;101712.09;;;11.43;100.00
71764;BME280;59602;52.142;5.408;2024-03-22T12:39:00;101710.94;;;11.45;100.00
71764;BME280;59602;52.142;5.408;2024-03-22T12:41:27;101703.19;;;11.47;100.00
71764;BME280;59602;52.142;5.408;2024-03-22T12:43:55;101715.34;;;11.53;100.00
71764;BME280;59602;52.142;5.408;2024-03-22T12:46:21;101708.03;;;11.57;100.00
71764;BME280;59602;52.142;5.408;2024-03-22T12:48:46;101708.56;;;11.66;100.00
71764;BME280;59602;52.142;5.408;2024-03-22T12:51:12;101702.81;;;11.71;100.00
71764;BME280;59602;52.142;5.408;2024-03-22T12:53:44;101700.03;;;11.68;100.00
71764;BME280;59602;52.142;5.408;2024-03-22T12:56:09;101698.81;;;11.65;100.00
71764;BME280;59602;52.142;5.408;2024-03-22T12:58:36;101694.47;;;11.60;100.00
71764;BME280;59602;52.142;5.408;2024-03-22T13:01:02;101690.09;;;11.56;100.00
71764;BME280;59602;52.142;5.408;2024-03-22T13:03:29;101692.56;;;11.64;100.00
71764;BME280;59602;52.142;5.408;2024-03-22T13:05:55;101690.59;;;11.61;100.00
71764;BME280;59602;52.142;5.408;2024-03-22T13:08:27;101685.09;;;11.58;100.00
71764;BME280;59602;52.142;5.408;2024-03-22T13:11:02;101687.44;;;11.59;100.00
71764;BME280;59602;52.142;5.408;2024-03-22T13:13:28;101682.78;;;11.60;100.00
71764;BME280;59602;52.142;5.408;2024-03-22T13:16:02;101678.94;;;11.61;100.00
71764;BME280;59602;52.142;5.408;2024-03-22T13:18:29;101682.34;;;11.58;100.00
71764;BME280;59602;52.142;5.408;2024-03-22T13:20:55;101674.53;;;11.56;100.00
71764;BME280;59602;52.142;5.408;2024-03-22T13:23:20;101678.84;;;11.57;100.00
71764;BME280;59602;52.142;5.408;2024-03-22T13:25:46;101669.91;;;11.57;100.00
71764;BME280;59602;52.142;5.408;2024-03-22T13:28:12;101667.47;;;11.52;100.00
71764;BME280;59602;52.142;5.408;2024-03-22T13:30:38;101673.72;;;11.52;100.00
71764;BME280;59602;52.142;5.408;2024-03-22T13:33:04;101671.47;;;11.58;100.00
71764;BME280;59602;52.142;5.408;2024-03-22T13:35:30;101667.91;;;11.54;100.00
71764;BME280;59602;52.142;5.408;2024-03-22T13:37:56;101669.91;;;11.57;100.00
71764;BME280;59602;52.142;5.408;2024-03-22T13:40:21;101663.72;;;11.60;100.00
71764;BME280;59602;52.142;5.408;2024-03-22T13:42:47;101660.22;;;11.59;100.00
71764;BME280;59602;52.142;5.408;2024-03-22T13:45:13;101657.13;;;11.61;100.00
71764;BME280;59602;52.142;5.408;2024-03-22T13:47:39;101650.16;;;11.63;100.00
71764;BME280;59602;52.142;5.408;2024-03-22T13:50:07;101647.78;;;11.62;100.00
71764;BME280;59602;52.142;5.408;2024-03-22T13:52:34;101647.31;;;11.56;100.00
71764;BME280;59602;52.142;5.408;2024-03-22T13:55:02;101638.25;;;11.49;100.00
71764;BME280;59602;52.142;5.408;2024-03-22T13:57:30;101643.38;;;11.54;100.00
71764;BME280;59602;52.142;5.408;2024-03-22T14:00:02;101633.69;;;11.56;100.00
71764;BME280;59602;52.142;5.408;2024-03-22T14:02:54;101630.59;;;11.58;100.00
71764;BME280;59602;52.142;5.408;2024-03-22T14:05:46;101629.06;;;11.57;100.00
71764;BME280;59602;52.142;5.408;2024-03-22T14:08:14;101622.41;;;11.54;100.00
71764;BME280;59602;52.142;5.408;2024-03-22T14:10:40;101615.84;;;11.59;100.00
71764;BME280;59602;52.142;5.408;2024-03-22T14:13:06;101616.22;;;11.57;100.00
71764;BME280;59602;52.142;5.408;2024-03-22T14:45:33;101573.66;;;11.76;100.00
71764;BME280;59602;52.142;5.408;2024-03-22T15:12:30;101580.94;;;11.68;100.00
71764;BME280;59602;52.142;5.408;2024-03-22T15:15:09;101581.63;;;11.61;100.00
71764;BME280;59602;52.142;5.408;2024-03-22T15:20:37;101585.50;;;11.60;100.00
